Terminal Aerodrome Forecast
Issued by NWS

Home | Current Version | Previous Version | Text Only | Print | Product List | Glossary On
Versions: 1 2 3 4 5 6 7 8 9 10 11 12 13 14 15 16 17 18 19 20 21 22 23 24 25 26 27 28 29
000
FTUS46 KPQR 282320
TAFONP
TAF
KONP 282320Z 2900/2924 23005KT P6SM SCT120
     FM290300 09003KT 6SM BR SCT002 BKN100
     FM291400 05004KT 6SM BR SCT100=

USA.gov is the U.S. government's official web portal to all federal, state and local government web resources and services.